Skip Navigation LinksHome page > Weather > Current weather Skip Navigation Links

Current Weather

Central Park, New York

For information only: do not use for flight planning or navigation.
Latest weather
Observation time Wednesday, May 27, 2015 8:51 AM EDT
Local time Wednesday, May 27, 2015 9:36 AM EDT
Flight conditions Marginal Visual Meteorological Conditions
Winds
Wind direction Southwest (230°)
Winds variable from 200° to 270°
Wind speed 9 mph
Visibility 7 mi.
Sky condition
Ceiling 1,300 ft. overcast
Cloud layer overcast 1,300 ft.
Temperature 74°F
Dewpoint 65°F
Altimeter 30.20 in.Hg
Derived measurements
Relative humidity 74%
Density altitude 1092 ft.
Sea-level pressure 30.17 in.Hg
Remarks
Fully automated report.
Automated weather observing station with precipitation discriminator.
METAR KNYC 271251Z AUTO 23008KT 200V270 7SM OVC013 23/18 A3020 RMK AO2 SLP217 T02330183

Settings

Location code

InnerDrive.Weather 4.0.5567.0 Release CLR 4.0.30319.34014
Copyright ©2015 Inner Drive Technology. All rights reserved. Portions Copyright ©1986-2015 David Braverman.

Find weather

Site navigation


Skip Navigation Links

Place info

Page info

PayPal - The safer, easier way to pay online!

Return home.

Copyright ©2015 Inner Drive Technology. Purveyors of fine, hand-crafted computer software. Page printed 2015-05-27T13:36:09 UTC.